Time;durP1;ratioP1;P1;durP2;ratioP2;P2;SDS_P1;SDS_P2;PMS_P1;PMS_P2;Temp;Humidity;BMP_temperature;BMP_pressure;BME280_temperature;BME280_humidity;BME280_pressure;Samples;Min_cycle;Max_cycle;Signal;HPM_P1;HPM_P2
2023/01/16 00:00:42;;;;;;;6.17;3.10;;;;;;;;;;5045084;28;20457;-80
2023/01/16 00:03:09;;;;;;;5.13;2.53;;;;;;;;;;5045529;28;20503;-79
2023/01/16 00:05:35;;;;;;;4.20;2.80;;;;;;;;;;5044260;28;20969;-80
2023/01/16 00:08:02;;;;;;;9.70;3.60;;;;;;;;;;5044242;28;20471;-79
2023/01/16 00:10:28;;;;;;;3.87;3.40;;;;;;;;;;5046905;28;20452;-82
2023/01/16 00:12:54;;;;;;;7.83;3.53;;;;;;;;;;5045610;28;20843;-80
2023/01/16 00:15:21;;;;;;;5.60;3.53;;;;;;;;;;5045017;28;20466;-80
2023/01/16 00:17:49;;;;;;;3.20;2.90;;;;;;;;;;5045745;28;20476;-80
2023/01/16 00:20:16;;;;;;;3.47;2.97;;;;;;;;;;5044747;28;20468;-80
2023/01/16 00:22:42;;;;;;;7.87;2.60;;;;;;;;;;5046489;28;20887;-80
2023/01/16 00:25:09;;;;;;;3.03;2.50;;;;;;;;;;5043716;28;20440;-81
2023/01/16 00:27:36;;;;;;;5.13;2.60;;;;;;;;;;5044071;28;20444;-80
2023/01/16 00:30:03;;;;;;;4.70;2.23;;;;;;;;;;5047041;28;20445;-80
2023/01/16 00:32:29;;;;;;;4.43;2.50;;;;;;;;;;5042530;28;20579;-80
2023/01/16 00:34:57;;;;;;;2.57;2.17;;;;;;;;;;5047779;28;20472;-80
2023/01/16 00:37:24;;;;;;;3.90;2.00;;;;;;;;;;5045918;28;20456;-81
2023/01/16 00:39:52;;;;;;;2.70;2.10;;;;;;;;;;5044675;28;20464;-81
2023/01/16 00:42:18;;;;;;;6.00;1.70;;;;;;;;;;5045177;28;20505;-81
2023/01/16 00:44:45;;;;;;;3.70;2.00;;;;;;;;;;5044454;28;20464;-80
2023/01/16 00:47:11;;;;;;;4.80;2.40;;;;;;;;;;5044041;28;21082;-80
2023/01/16 00:49:38;;;;;;;4.30;1.90;;;;;;;;;;5044638;28;20483;-80
2023/01/16 00:52:06;;;;;;;2.30;2.10;;;;;;;;;;5043895;28;20472;-80
2023/01/16 00:54:32;;;;;;;3.10;2.00;;;;;;;;;;5042786;28;20475;-80
2023/01/16 00:56:58;;;;;;;2.57;2.30;;;;;;;;;;5046011;28;20437;-80
2023/01/16 00:59:25;;;;;;;4.70;2.20;;;;;;;;;;5044715;28;20480;-80
2023/01/16 01:01:51;;;;;;;10.43;2.50;;;;;;;;;;5044092;28;20492;-80
2023/01/16 01:04:17;;;;;;;3.30;1.93;;;;;;;;;;5041476;28;20477;-82
2023/01/16 01:06:44;;;;;;;5.27;2.27;;;;;;;;;;5043015;28;20452;-82
2023/01/16 01:09:12;;;;;;;5.90;2.20;;;;;;;;;;5046297;28;20475;-80
2023/01/16 01:11:39;;;;;;;8.03;2.70;;;;;;;;;;5044953;28;20467;-80
2023/01/16 01:14:06;;;;;;;4.30;2.23;;;;;;;;;;5044066;28;20482;-78
2023/01/16 01:16:32;;;;;;;4.33;1.90;;;;;;;;;;5043158;28;20985;-81
2023/01/16 01:18:59;;;;;;;5.27;2.70;;;;;;;;;;5042099;28;20477;-78
2023/01/16 01:21:25;;;;;;;4.00;2.10;;;;;;;;;;5043818;28;20456;-81
2023/01/16 01:23:52;;;;;;;5.10;3.10;;;;;;;;;;5038390;28;20471;-80
2023/01/16 01:26:20;;;;;;;9.00;2.83;;;;;;;;;;5042502;28;20973;-79
2023/01/16 01:28:46;;;;;;;2.60;2.40;;;;;;;;;;5040604;28;21024;-79
2023/01/16 01:31:13;;;;;;;3.43;2.70;;;;;;;;;;5042014;28;20463;-81
2023/01/16 01:33:40;;;;;;;8.20;2.70;;;;;;;;;;5039228;28;20973;-80
2023/01/16 01:36:07;;;;;;;3.20;1.93;;;;;;;;;;5041079;28;20448;-81
2023/01/16 01:38:33;;;;;;;4.20;2.40;;;;;;;;;;5039608;28;20529;-80
2023/01/16 01:41:00;;;;;;;3.57;2.13;;;;;;;;;;5041590;28;20449;-80
2023/01/16 01:43:39;;;;;;;7.53;2.30;;;;;;;;;;5039176;28;20518;-80
2023/01/16 01:46:06;;;;;;;4.10;2.20;;;;;;;;;;5040875;28;20471;-81
2023/01/16 01:48:36;;;;;;;10.23;3.13;;;;;;;;;;5040092;28;20478;-80
2023/01/16 01:51:05;;;;;;;6.20;3.57;;;;;;;;;;5038711;28;20464;-80
2023/01/16 01:53:36;;;;;;;3.50;2.90;;;;;;;;;;5038544;28;20486;-80
2023/01/16 01:56:06;;;;;;;9.70;3.90;;;;;;;;;;5041109;28;20467;-79
2023/01/16 01:58:34;;;;;;;4.27;2.63;;;;;;;;;;5040582;28;20531;-80
2023/01/16 02:01:01;;;;;;;5.43;2.60;;;;;;;;;;5038762;28;21025;-81
2023/01/16 02:03:31;;;;;;;3.40;2.70;;;;;;;;;;5039932;28;20480;-80
2023/01/16 02:05:58;;;;;;;3.20;2.47;;;;;;;;;;5039150;28;20478;-81
2023/01/16 02:08:27;;;;;;;11.23;5.07;;;;;;;;;;5038338;28;21013;-81
2023/01/16 02:10:56;;;;;;;2.97;2.27;;;;;;;;;;5038330;28;20466;-80
2023/01/16 02:13:23;;;;;;;3.90;2.57;;;;;;;;;;5039461;28;20487;-81
2023/01/16 02:21:44;;;;;;;3.50;2.80;;;;;;;;;;4960642;28;20973;-80
2023/01/16 02:24:18;;;;;;;5.63;3.00;;;;;;;;;;5026372;28;20499;-80
2023/01/16 02:27:13;;;;;;;2.93;2.70;;;;;;;;;;5040245;28;21024;-79
2023/01/16 02:30:07;;;;;;;4.07;2.60;;;;;;;;;;5039853;28;21009;-80
2023/01/16 02:32:48;;;;;;;6.20;2.53;;;;;;;;;;5038502;28;20476;-81
2023/01/16 02:35:29;;;;;;;4.47;2.23;;;;;;;;;;5039517;28;20555;-81
2023/01/16 02:38:01;;;;;;;3.07;2.70;;;;;;;;;;5039377;28;20467;-81
2023/01/16 02:40:32;;;;;;;8.23;3.00;;;;;;;;;;5040152;28;20440;-80
2023/01/16 02:43:03;;;;;;;9.03;3.27;;;;;;;;;;5039814;28;20851;-80
2023/01/16 02:45:32;;;;;;;6.93;2.63;;;;;;;;;;5037668;28;20455;-80
2023/01/16 02:48:00;;;;;;;4.63;2.70;;;;;;;;;;5040299;28;20471;-80
2023/01/16 02:50:28;;;;;;;3.47;2.63;;;;;;;;;;5023209;28;20502;-81
2023/01/16 02:52:58;;;;;;;8.40;2.50;;;;;;;;;;5037504;28;20487;-81
2023/01/16 02:55:27;;;;;;;4.93;2.53;;;;;;;;;;5038094;28;20460;-81
2023/01/16 02:57:57;;;;;;;3.70;2.40;;;;;;;;;;5039345;28;20960;-80
2023/01/16 03:00:23;;;;;;;8.47;2.90;;;;;;;;;;5037846;28;20958;-81
2023/01/16 03:02:50;;;;;;;8.43;3.30;;;;;;;;;;5035424;28;20988;-80
2023/01/16 03:05:16;;;;;;;7.20;2.70;;;;;;;;;;5037620;28;20987;-80
2023/01/16 03:08:03;;;;;;;4.70;3.13;;;;;;;;;;5035552;28;20828;-81
2023/01/16 03:10:36;;;;;;;7.40;2.80;;;;;;;;;;5039578;28;20505;-81
2023/01/16 03:13:10;;;;;;;6.53;3.53;;;;;;;;;;5038642;28;21012;-80
2023/01/16 03:15:40;;;;;;;8.70;2.70;;;;;;;;;;5038945;28;20854;-81
2023/01/16 03:18:10;;;;;;;7.20;3.23;;;;;;;;;;5037920;28;20478;-81
2023/01/16 03:20:41;;;;;;;10.93;3.77;;;;;;;;;;5040000;28;20467;-81
2023/01/16 03:23:10;;;;;;;4.40;3.10;;;;;;;;;;5036336;28;20491;-81
2023/01/16 03:25:38;;;;;;;4.80;2.73;;;;;;;;;;5038794;28;20468;-80
2023/01/16 03:28:08;;;;;;;5.60;2.07;;;;;;;;;;5038988;28;20467;-81
2023/01/16 03:30:39;;;;;;;4.77;2.80;;;;;;;;;;5037065;28;20618;-80
2023/01/16 03:33:07;;;;;;;3.73;2.73;;;;;;;;;;5035850;28;20476;-80
2023/01/16 03:35:35;;;;;;;4.30;3.07;;;;;;;;;;5037943;28;20469;-81
2023/01/16 03:38:03;;;;;;;4.70;2.50;;;;;;;;;;5037974;28;20491;-80
2023/01/16 03:40:34;;;;;;;8.33;2.70;;;;;;;;;;5037497;28;20976;-81
2023/01/16 03:43:02;;;;;;;4.83;2.67;;;;;;;;;;5037192;28;20472;-80
2023/01/16 03:45:32;;;;;;;8.30;3.00;;;;;;;;;;5037533;28;20932;-81
2023/01/16 03:48:01;;;;;;;9.70;3.00;;;;;;;;;;5039549;28;20467;-80
2023/01/16 03:50:28;;;;;;;12.90;3.80;;;;;;;;;;5038748;28;21085;-80
2023/01/16 03:52:58;;;;;;;5.20;2.87;;;;;;;;;;5039570;28;20480;-81
2023/01/16 03:55:27;;;;;;;5.83;2.70;;;;;;;;;;5039120;28;20468;-79
2023/01/16 03:57:58;;;;;;;8.10;3.27;;;;;;;;;;5037339;28;20444;-80
2023/01/16 04:00:27;;;;;;;3.60;3.00;;;;;;;;;;5038306;28;20444;-80
2023/01/16 04:02:56;;;;;;;4.93;3.37;;;;;;;;;;5038692;28;20546;-80
2023/01/16 04:05:26;;;;;;;4.23;3.40;;;;;;;;;;5037503;28;20460;-81
2023/01/16 04:07:55;;;;;;;5.07;3.97;;;;;;;;;;5039009;28;20440;-79
2023/01/16 04:10:23;;;;;;;6.63;3.03;;;;;;;;;;5036810;28;20471;-80
2023/01/16 04:12:51;;;;;;;12.30;3.10;;;;;;;;;;5038066;28;20512;-80
2023/01/16 04:15:20;;;;;;;6.67;2.60;;;;;;;;;;5039624;28;21267;-81
2023/01/16 04:17:46;;;;;;;6.13;3.17;;;;;;;;;;5037029;28;20480;-81
2023/01/16 04:20:13;;;;;;;5.03;2.60;;;;;;;;;;5036853;28;20453;-81
2023/01/16 04:22:39;;;;;;;11.63;3.67;;;;;;;;;;5037330;28;20476;-80
2023/01/16 04:25:07;;;;;;;5.87;2.57;;;;;;;;;;5038884;28;20461;-81
2023/01/16 04:27:34;;;;;;;3.50;2.60;;;;;;;;;;5039369;28;20531;-81
2023/01/16 04:30:00;;;;;;;5.57;2.70;;;;;;;;;;5039062;28;20468;-81
2023/01/16 04:32:28;;;;;;;5.83;3.40;;;;;;;;;;5038918;28;20515;-81
2023/01/16 04:34:54;;;;;;;5.33;2.33;;;;;;;;;;5039488;28;20479;-80
2023/01/16 04:37:21;;;;;;;5.13;2.03;;;;;;;;;;5039282;28;20494;-80
2023/01/16 04:39:49;;;;;;;3.00;1.97;;;;;;;;;;5036744;28;20511;-80
2023/01/16 04:42:16;;;;;;;5.17;2.30;;;;;;;;;;5039124;28;21255;-80
2023/01/16 04:44:42;;;;;;;3.13;2.23;;;;;;;;;;5041086;28;20487;-80
2023/01/16 04:47:09;;;;;;;6.13;2.80;;;;;;;;;;5041746;28;20463;-80
2023/01/16 04:49:37;;;;;;;4.43;2.30;;;;;;;;;;5041286;28;20977;-80
2023/01/16 04:52:03;;;;;;;8.60;2.87;;;;;;;;;;5042906;28;20471;-80
2023/01/16 04:54:30;;;;;;;4.37;2.20;;;;;;;;;;5038162;28;20491;-80
2023/01/16 04:56:56;;;;;;;4.53;1.60;;;;;;;;;;5039451;28;21000;-80
2023/01/16 04:59:23;;;;;;;2.63;1.73;;;;;;;;;;5040027;28;20473;-80
2023/01/16 05:01:49;;;;;;;7.40;2.00;;;;;;;;;;5042673;28;20459;-80
2023/01/16 05:04:16;;;;;;;8.00;2.20;;;;;;;;;;5038647;28;20480;-80
2023/01/16 05:06:44;;;;;;;4.53;1.90;;;;;;;;;;5041494;28;20988;-80
2023/01/16 05:09:10;;;;;;;3.80;2.23;;;;;;;;;;5039051;28;20481;-80
2023/01/16 05:11:37;;;;;;;3.53;1.90;;;;;;;;;;5039678;28;20455;-80
2023/01/16 05:14:05;;;;;;;2.30;2.10;;;;;;;;;;5040144;28;21021;-80
2023/01/16 05:16:31;;;;;;;4.37;2.23;;;;;;;;;;5040186;28;20526;-80
2023/01/16 05:18:58;;;;;;;3.83;2.20;;;;;;;;;;5041567;28;20480;-80
2023/01/16 05:21:25;;;;;;;4.03;2.40;;;;;;;;;;5040597;28;20468;-80
2023/01/16 05:23:53;;;;;;;2.87;1.90;;;;;;;;;;5040264;28;20472;-80
2023/01/16 05:26:20;;;;;;;4.30;2.40;;;;;;;;;;5039179;28;20464;-81
2023/01/16 05:28:48;;;;;;;4.53;2.67;;;;;;;;;;5041535;28;20512;-80
2023/01/16 05:31:14;;;;;;;3.40;2.63;;;;;;;;;;5039230;28;20472;-80
2023/01/16 05:33:40;;;;;;;3.53;2.23;;;;;;;;;;5036925;28;21000;-80
2023/01/16 05:36:07;;;;;;;6.23;2.70;;;;;;;;;;5042156;28;20452;-80
2023/01/16 05:38:34;;;;;;;6.43;2.93;;;;;;;;;;5041835;28;20479;-80
2023/01/16 05:41:02;;;;;;;4.13;2.73;;;;;;;;;;5042430;28;20484;-80
2023/01/16 05:43:28;;;;;;;3.60;2.47;;;;;;;;;;5041214;28;20472;-80
2023/01/16 05:45:54;;;;;;;3.87;3.23;;;;;;;;;;5040291;28;20453;-80
2023/01/16 05:48:21;;;;;;;3.47;3.17;;;;;;;;;;5040611;28;20477;-79
2023/01/16 05:50:47;;;;;;;10.17;3.10;;;;;;;;;;5039751;28;20832;-79
2023/01/16 05:53:13;;;;;;;6.37;3.57;;;;;;;;;;5038832;28;20815;-79
2023/01/16 05:55:42;;;;;;;7.57;3.80;;;;;;;;;;5041298;28;20442;-80
2023/01/16 05:58:10;;;;;;;4.20;3.63;;;;;;;;;;5040743;28;20471;-80
2023/01/16 06:00:37;;;;;;;6.80;4.60;;;;;;;;;;5040193;28;20480;-80
2023/01/16 06:03:03;;;;;;;7.23;3.90;;;;;;;;;;5039805;28;20477;-80
2023/01/16 06:05:30;;;;;;;8.30;4.10;;;;;;;;;;5037972;28;20453;-80
2023/01/16 06:07:57;;;;;;;7.87;4.10;;;;;;;;;;5040748;28;20451;-80
2023/01/16 06:10:23;;;;;;;6.40;4.63;;;;;;;;;;5042116;28;20460;-80
2023/01/16 06:12:49;;;;;;;4.83;4.17;;;;;;;;;;5036537;28;20476;-80
2023/01/16 06:15:17;;;;;;;6.60;4.40;;;;;;;;;;5038650;28;20544;-79
2023/01/16 06:17:44;;;;;;;8.10;4.60;;;;;;;;;;5038547;28;20459;-79
2023/01/16 06:20:11;;;;;;;4.60;4.20;;;;;;;;;;5037925;28;20956;-80
2023/01/16 06:22:38;;;;;;;5.57;4.20;;;;;;;;;;5039012;28;20484;-80
2023/01/16 06:25:05;;;;;;;7.53;4.73;;;;;;;;;;5038747;28;20476;-80
2023/01/16 06:27:32;;;;;;;5.97;4.00;;;;;;;;;;5039126;28;20465;-80
2023/01/16 06:29:58;;;;;;;4.57;4.17;;;;;;;;;;5038141;28;20500;-80
2023/01/16 06:32:28;;;;;;;8.23;4.03;;;;;;;;;;5036111;28;20480;-80
2023/01/16 06:34:54;;;;;;;5.77;4.47;;;;;;;;;;5033558;28;20479;-79
2023/01/16 06:37:20;;;;;;;5.67;3.63;;;;;;;;;;5038247;28;20462;-80
2023/01/16 06:39:46;;;;;;;4.73;3.67;;;;;;;;;;5037261;28;20498;-81
2023/01/16 06:42:13;;;;;;;4.23;3.87;;;;;;;;;;5037062;28;20543;-80
2023/01/16 06:44:39;;;;;;;6.93;4.10;;;;;;;;;;5040067;28;20468;-80
2023/01/16 06:47:06;;;;;;;7.70;4.20;;;;;;;;;;5040320;28;20467;-81
2023/01/16 06:49:34;;;;;;;5.33;4.83;;;;;;;;;;5038882;28;21060;-80
2023/01/16 06:52:01;;;;;;;5.13;4.20;;;;;;;;;;5040405;28;20447;-81
2023/01/16 06:54:27;;;;;;;4.93;4.10;;;;;;;;;;5040415;28;20850;-81
2023/01/16 06:56:54;;;;;;;4.20;3.80;;;;;;;;;;5042669;28;20441;-81
2023/01/16 06:59:20;;;;;;;8.60;4.13;;;;;;;;;;5037851;28;21008;-81
2023/01/16 07:01:46;;;;;;;5.30;3.90;;;;;;;;;;5041397;28;20449;-81
2023/01/16 07:04:14;;;;;;;4.20;3.70;;;;;;;;;;5038614;28;20476;-81
2023/01/16 07:06:42;;;;;;;4.87;4.17;;;;;;;;;;5040821;28;20440;-81
2023/01/16 07:09:08;;;;;;;11.93;5.20;;;;;;;;;;5040795;28;20461;-80
2023/01/16 07:11:35;;;;;;;5.33;4.23;;;;;;;;;;5039403;28;20462;-81
2023/01/16 07:22:38;;;;;;;8.30;5.27;;;;;;;;;;5041351;28;20487;-81
2023/01/16 07:25:07;;;;;;;7.40;5.47;;;;;;;;;;5039281;28;20472;-81
2023/01/16 07:27:33;;;;;;;11.00;5.23;;;;;;;;;;5039303;28;20945;-80
2023/01/16 07:29:59;;;;;;;10.00;6.00;;;;;;;;;;5039399;28;20476;-81
2023/01/16 07:32:26;;;;;;;12.90;8.87;;;;;;;;;;5039678;28;20468;-80
2023/01/16 07:34:52;;;;;;;5.80;5.20;;;;;;;;;;5037718;28;20997;-81
2023/01/16 07:37:20;;;;;;;7.40;5.10;;;;;;;;;;5035368;28;20460;-80
2023/01/16 07:39:47;;;;;;;8.47;5.23;;;;;;;;;;5038277;28;20477;-80
2023/01/16 07:42:13;;;;;;;8.67;4.30;;;;;;;;;;5040113;28;21101;-80
2023/01/16 07:44:39;;;;;;;8.50;5.33;;;;;;;;;;5038618;28;20494;-80
2023/01/16 07:47:06;;;;;;;6.40;3.83;;;;;;;;;;5040539;28;20987;-80
2023/01/16 07:49:32;;;;;;;5.67;4.40;;;;;;;;;;5038726;28;20567;-80
2023/01/16 07:51:58;;;;;;;5.73;4.37;;;;;;;;;;5039336;28;20461;-80
2023/01/16 07:54:26;;;;;;;4.77;4.37;;;;;;;;;;5037536;28;20467;-80
2023/01/16 07:56:52;;;;;;;8.87;4.30;;;;;;;;;;5038267;28;20455;-80
2023/01/16 07:59:19;;;;;;;5.20;3.60;;;;;;;;;;5037876;28;20501;-80
2023/01/16 08:01:46;;;;;;;5.90;3.43;;;;;;;;;;5037618;28;20473;-80
2023/01/16 08:04:13;;;;;;;9.03;3.10;;;;;;;;;;5038814;28;20468;-81
2023/01/16 08:06:44;;;;;;;10.20;3.27;;;;;;;;;;5038116;28;20530;-80
2023/01/16 08:09:11;;;;;;;7.27;3.03;;;;;;;;;;5040572;28;20492;-80
2023/01/16 08:11:39;;;;;;;5.33;3.00;;;;;;;;;;5039678;28;20440;-80
2023/01/16 08:14:06;;;;;;;4.10;2.60;;;;;;;;;;5036798;28;20476;-80
2023/01/16 08:16:33;;;;;;;8.10;2.77;;;;;;;;;;5042230;28;20490;-80
2023/01/16 08:18:59;;;;;;;2.37;2.00;;;;;;;;;;5041219;28;20464;-80
2023/01/16 08:21:26;;;;;;;3.80;2.30;;;;;;;;;;5041958;28;20491;-80
2023/01/16 08:23:52;;;;;;;6.10;2.20;;;;;;;;;;5042885;28;20472;-80
2023/01/16 08:26:19;;;;;;;2.00;1.60;;;;;;;;;;5043616;28;20448;-81
2023/01/16 08:28:46;;;;;;;7.60;2.10;;;;;;;;;;5040827;28;21031;-80
2023/01/16 08:31:14;;;;;;;4.20;1.73;;;;;;;;;;5042533;28;20468;-81
2023/01/16 08:33:40;;;;;;;2.57;2.13;;;;;;;;;;5040864;28;20498;-81
2023/01/16 08:36:08;;;;;;;3.10;1.33;;;;;;;;;;5043272;28;20452;-80
2023/01/16 08:38:35;;;;;;;2.93;1.90;;;;;;;;;;5040627;28;20472;-80
2023/01/16 08:41:02;;;;;;;6.80;2.43;;;;;;;;;;5041861;28;20464;-80
2023/01/16 08:51:46;;;;;;;4.03;1.87;;;;;;;;;;5043044;28;20424;-81
2023/01/16 08:54:12;;;;;;;2.47;1.87;;;;;;;;;;5041992;28;20476;-80
2023/01/16 08:56:42;;;;;;;2.43;1.60;;;;;;;;;;5040115;28;20941;-81
2023/01/16 08:59:10;;;;;;;9.40;2.20;;;;;;;;;;5027508;28;20472;-80
2023/01/16 09:01:39;;;;;;;4.50;1.50;;;;;;;;;;5041883;28;20457;-79
2023/01/16 09:04:05;;;;;;;3.40;1.30;;;;;;;;;;5040535;28;20473;-80
2023/01/16 09:06:35;;;;;;;1.93;1.60;;;;;;;;;;5041321;28;20811;-80
2023/01/16 09:09:02;;;;;;;2.87;1.40;;;;;;;;;;5040943;28;20469;-81
2023/01/16 09:14:12;;;;;;;3.20;1.80;;;;;;;;;;5041241;28;20482;-80
2023/01/16 09:16:40;;;;;;;10.63;3.30;;;;;;;;;;5040169;28;20467;-81
2023/01/16 09:19:07;;;;;;;1.90;1.57;;;;;;;;;;5041347;28;20468;-81
2023/01/16 09:21:33;;;;;;;4.70;2.07;;;;;;;;;;5042254;28;20456;-80
2023/01/16 09:24:00;;;;;;;3.60;1.67;;;;;;;;;;5040803;28;20576;-80
2023/01/16 09:26:26;;;;;;;5.53;1.83;;;;;;;;;;5041880;28;20484;-80
2023/01/16 09:28:53;;;;;;;1.70;1.60;;;;;;;;;;5039270;28;20476;-81
2023/01/16 09:31:19;;;;;;;6.83;1.80;;;;;;;;;;5043045;28;20452;-81
2023/01/16 09:33:48;;;;;;;5.43;1.80;;;;;;;;;;5040928;28;20468;-81
2023/01/16 09:36:14;;;;;;;1.57;1.43;;;;;;;;;;5038770;28;20571;-81
2023/01/16 09:38:41;;;;;;;3.37;2.00;;;;;;;;;;5040746;28;20475;-81
2023/01/16 09:41:12;;;;;;;1.60;1.33;;;;;;;;;;5042859;28;20442;-81
2023/01/16 09:43:38;;;;;;;5.23;1.90;;;;;;;;;;5041445;28;20472;-82
2023/01/16 09:46:10;;;;;;;7.43;2.40;;;;;;;;;;5041694;28;20864;-81
2023/01/16 09:48:39;;;;;;;2.50;2.20;;;;;;;;;;5041608;28;20840;-81
2023/01/16 09:51:08;;;;;;;4.10;2.03;;;;;;;;;;5041653;28;20458;-80
2023/01/16 09:59:15;;;;;;;2.57;2.13;;;;;;;;;;5038914;28;20491;-81
2023/01/16 10:01:44;;;;;;;3.07;1.97;;;;;;;;;;5040443;28;20467;-81
2023/01/16 10:04:17;;;;;;;1.43;1.33;;;;;;;;;;5040087;28;20479;-80
2023/01/16 10:06:52;;;;;;;5.27;2.33;;;;;;;;;;5039586;28;20806;-81
2023/01/16 10:09:23;;;;;;;2.73;1.70;;;;;;;;;;5039401;28;20542;-81
2023/01/16 10:11:51;;;;;;;2.93;1.33;;;;;;;;;;5040913;28;20451;-81
2023/01/16 10:14:25;;;;;;;1.70;1.43;;;;;;;;;;5042947;28;20491;-81
2023/01/16 10:16:59;;;;;;;6.53;2.40;;;;;;;;;;5041668;28;20822;-81
2023/01/16 10:19:33;;;;;;;4.20;2.23;;;;;;;;;;5038243;28;20475;-81
2023/01/16 10:22:17;;;;;;;8.07;2.83;;;;;;;;;;5039509;28;20448;-81
2023/01/16 10:24:49;;;;;;;10.80;2.80;;;;;;;;;;5038454;28;20476;-80
2023/01/16 10:27:19;;;;;;;5.03;2.30;;;;;;;;;;5040953;28;20447;-80
2023/01/16 10:29:48;;;;;;;2.07;1.80;;;;;;;;;;5039605;28;20480;-81
2023/01/16 10:32:19;;;;;;;4.73;2.07;;;;;;;;;;5036675;28;20844;-80
2023/01/16 10:34:49;;;;;;;4.97;1.63;;;;;;;;;;5040710;28;20468;-80
2023/01/16 10:37:17;;;;;;;4.20;1.83;;;;;;;;;;5040753;28;20461;-81
2023/01/16 10:39:45;;;;;;;3.43;1.77;;;;;;;;;;5038626;28;20994;-81
2023/01/16 10:50:27;;;;;;;1.40;1.30;;;;;;;;;;5039010;28;20521;-81
2023/01/16 10:52:55;;;;;;;5.70;2.10;;;;;;;;;;5040421;28;20475;-81
2023/01/16 10:55:21;;;;;;;5.03;3.10;;;;;;;;;;5037540;28;20469;-81
2023/01/16 10:57:50;;;;;;;3.93;2.20;;;;;;;;;;5040288;28;20487;-81
2023/01/16 11:00:19;;;;;;;4.97;2.00;;;;;;;;;;5038114;28;20487;-81
2023/01/16 11:02:47;;;;;;;8.00;2.57;;;;;;;;;;5041002;28;20487;-81
2023/01/16 11:05:23;;;;;;;5.73;2.40;;;;;;;;;;5038784;28;20496;-81
2023/01/16 11:07:53;;;;;;;3.20;2.40;;;;;;;;;;5037687;28;20457;-81
2023/01/16 11:10:23;;;;;;;5.93;3.53;;;;;;;;;;5040839;28;20837;-80
2023/01/16 11:18:31;;;;;;;12.80;6.40;;;;;;;;;;5040096;28;20960;-81
2023/01/16 11:21:00;;;;;;;7.63;4.50;;;;;;;;;;5040233;28;20456;-81
2023/01/16 11:23:28;;;;;;;9.03;5.33;;;;;;;;;;5038534;28;21078;-80
2023/01/16 11:25:58;;;;;;;6.50;3.30;;;;;;;;;;5036561;28;20541;-81
2023/01/16 11:28:26;;;;;;;6.13;1.97;;;;;;;;;;5038706;28;20531;-81
2023/01/16 11:30:55;;;;;;;2.13;1.73;;;;;;;;;;5039159;28;21060;-80
2023/01/16 11:33:23;;;;;;;2.40;1.87;;;;;;;;;;5038167;28;20472;-80
2023/01/16 11:35:52;;;;;;;4.43;1.63;;;;;;;;;;5040184;28;20429;-79
2023/01/16 11:38:19;;;;;;;6.57;1.90;;;;;;;;;;5045872;28;20445;-79
2023/01/16 11:40:47;;;;;;;1.80;1.30;;;;;;;;;;5039212;28;20467;-80
2023/01/16 11:46:03;;;;;;;6.63;2.10;;;;;;;;;;5041371;28;20857;-79
2023/01/16 11:48:34;;;;;;;4.40;2.20;;;;;;;;;;5041033;28;21035;-79
2023/01/16 11:51:03;;;;;;;3.67;1.90;;;;;;;;;;5044305;28;20464;-79
2023/01/16 11:53:31;;;;;;;3.00;1.73;;;;;;;;;;5044374;28;20972;-78
2023/01/16 11:56:03;;;;;;;4.50;1.60;;;;;;;;;;5044005;28;20472;-79
2023/01/16 11:58:38;;;;;;;9.13;2.60;;;;;;;;;;5045261;28;20497;-79
2023/01/16 12:01:09;;;;;;;5.30;2.90;;;;;;;;;;5045469;28;20556;-77
2023/01/16 12:03:45;;;;;;;2.70;2.20;;;;;;;;;;5043244;28;20476;-78
2023/01/16 12:06:15;;;;;;;9.43;4.13;;;;;;;;;;5044950;28;20479;-80
2023/01/16 12:08:53;;;;;;;2.97;2.43;;;;;;;;;;5041131;28;20467;-80
2023/01/16 12:11:26;;;;;;;3.30;1.90;;;;;;;;;;5045381;28;20459;-80
2023/01/16 12:16:47;;;;;;;9.80;3.70;;;;;;;;;;5043417;28;20819;-80
2023/01/16 12:19:24;;;;;;;4.90;2.17;;;;;;;;;;5043160;28;20530;-80
2023/01/16 12:21:54;;;;;;;4.70;2.63;;;;;;;;;;5042117;28;20448;-80
2023/01/16 12:24:27;;;;;;;6.27;3.60;;;;;;;;;;5041850;28;20874;-79
2023/01/16 12:26:58;;;;;;;4.97;3.10;;;;;;;;;;5044417;28;20576;-80
2023/01/16 12:29:30;;;;;;;3.43;2.17;;;;;;;;;;5042014;28;20525;-79
2023/01/16 12:32:02;;;;;;;4.33;2.57;;;;;;;;;;5041784;28;20472;-80
2023/01/16 12:34:33;;;;;;;3.13;2.43;;;;;;;;;;5038464;28;20479;-80
2023/01/16 12:37:15;;;;;;;5.40;2.77;;;;;;;;;;5043107;28;20927;-79
2023/01/16 12:39:45;;;;;;;3.73;2.03;;;;;;;;;;5038389;28;20468;-80
2023/01/16 12:45:07;;;;;;;3.97;2.70;;;;;;;;;;5040457;28;20482;-80
2023/01/16 12:47:39;;;;;;;9.13;2.30;;;;;;;;;;5042538;28;20451;-80
2023/01/16 12:50:19;;;;;;;5.63;2.40;;;;;;;;;;5041080;28;20476;-79
2023/01/16 12:52:53;;;;;;;6.37;2.63;;;;;;;;;;5042655;28;21039;-79
2023/01/16 12:55:25;;;;;;;6.00;1.60;;;;;;;;;;5044469;28;20467;-79
2023/01/16 12:58:00;;;;;;;4.47;2.53;;;;;;;;;;5043348;28;20488;-79
2023/01/16 13:00:39;;;;;;;2.70;2.10;;;;;;;;;;5039575;28;21005;-80
2023/01/16 13:03:13;;;;;;;3.57;1.60;;;;;;;;;;5040579;28;20483;-79
2023/01/16 13:05:41;;;;;;;2.77;2.00;;;;;;;;;;5038909;28;21001;-79
2023/01/16 13:08:12;;;;;;;3.93;2.20;;;;;;;;;;5043153;28;20441;-82
2023/01/16 13:13:27;;;;;;;4.13;1.83;;;;;;;;;;5040008;28;20470;-80
2023/01/16 13:15:58;;;;;;;2.80;1.80;;;;;;;;;;5042639;28;20448;-80
2023/01/16 13:18:27;;;;;;;4.60;1.80;;;;;;;;;;5040425;28;20467;-80
2023/01/16 13:20:56;;;;;;;4.90;1.87;;;;;;;;;;5041702;28;20506;-79
2023/01/16 13:23:24;;;;;;;2.50;1.60;;;;;;;;;;5041018;28;20968;-79
2023/01/16 13:25:56;;;;;;;2.63;1.90;;;;;;;;;;5041932;28;20487;-79
2023/01/16 13:28:26;;;;;;;11.30;2.73;;;;;;;;;;5042646;28;21018;-80
2023/01/16 13:30:54;;;;;;;7.10;2.50;;;;;;;;;;5040338;28;20456;-78
2023/01/16 13:33:24;;;;;;;5.13;2.27;;;;;;;;;;5041870;28;20619;-80
2023/01/16 13:35:55;;;;;;;3.70;1.67;;;;;;;;;;5041488;28;20844;-80
2023/01/16 13:38:32;;;;;;;2.57;2.00;;;;;;;;;;5041864;28;20445;-80
2023/01/16 13:41:10;;;;;;;3.80;2.30;;;;;;;;;;5042956;28;20451;-79
2023/01/16 13:46:23;;;;;;;1.80;1.70;;;;;;;;;;5041970;28;20487;-80
2023/01/16 13:48:54;;;;;;;4.40;2.07;;;;;;;;;;5041763;28;21059;-79
2023/01/16 13:51:23;;;;;;;8.40;2.73;;;;;;;;;;5043082;28;20519;-80
2023/01/16 13:53:51;;;;;;;2.73;1.70;;;;;;;;;;5040519;28;20580;-80
2023/01/16 13:56:20;;;;;;;2.57;1.17;;;;;;;;;;5044914;28;20467;-79
2023/01/16 13:58:48;;;;;;;3.03;2.00;;;;;;;;;;5040918;28;21091;-80
2023/01/16 14:01:32;;;;;;;5.10;1.90;;;;;;;;;;5040281;28;20464;-79
2023/01/16 14:04:28;;;;;;;4.40;3.20;;;;;;;;;;5041314;28;20487;-79
2023/01/16 14:09:03;;;;;;;4.20;1.80;;;;;;;;;;5042977;28;20542;-79
2023/01/16 14:10:01;;;;;;;3.03;1.70;;;;;;;;;;5041847;28;20993;-79
2023/01/16 14:12:33;;;;;;;3.37;1.50;;;;;;;;;;5040202;28;20461;-79
2023/01/16 14:18:02;;;;;;;2.30;1.60;;;;;;;;;;5044693;28;20479;-80
2023/01/16 14:20:41;;;;;;;3.00;1.60;;;;;;;;;;5045140;28;20908;-79
2023/01/16 14:26:08;;;;;;;2.70;1.70;;;;;;;;;;5015683;28;20468;-79
2023/01/16 14:28:34;;;;;;;5.00;2.87;;;;;;;;;;5039850;28;20476;-79
2023/01/16 14:31:01;;;;;;;3.80;1.93;;;;;;;;;;5038632;28;20969;-79
2023/01/16 14:33:29;;;;;;;4.50;2.70;;;;;;;;;;5040955;28;20461;-79
2023/01/16 14:35:58;;;;;;;3.90;2.03;;;;;;;;;;5038467;28;20457;-79
2023/01/16 14:38:27;;;;;;;3.20;1.60;;;;;;;;;;5040421;28;20456;-80
2023/01/16 14:55:19;;;;;;;2.83;1.30;;;;;;;;;;5040912;28;20467;-80
2023/01/16 14:57:46;;;;;;;2.00;1.90;;;;;;;;;;5040392;28;20443;-79
2023/01/16 15:00:17;;;;;;;1.00;0.90;;;;;;;;;;5040685;28;20856;-78
2023/01/16 15:02:45;;;;;;;2.70;1.30;;;;;;;;;;5039579;28;21045;-80
2023/01/16 15:05:14;;;;;;;1.90;1.10;;;;;;;;;;5037132;28;20468;-80
2023/01/16 15:07:44;;;;;;;8.23;1.60;;;;;;;;;;5040655;28;20491;-79
2023/01/16 15:10:12;;;;;;;2.43;1.40;;;;;;;;;;5036988;28;20487;-80
2023/01/16 15:12:39;;;;;;;2.00;1.80;;;;;;;;;;5039597;28;20479;-80
2023/01/16 15:15:06;;;;;;;3.30;0.90;;;;;;;;;;5039160;28;20511;-80
2023/01/16 15:23:28;;;;;;;3.13;1.30;;;;;;;;;;5037869;28;20515;-80
2023/01/16 15:26:00;;;;;;;3.50;1.37;;;;;;;;;;5037990;28;20468;-79
2023/01/16 15:28:30;;;;;;;1.93;1.30;;;;;;;;;;5040090;28;20456;-80
2023/01/16 15:30:59;;;;;;;4.53;1.70;;;;;;;;;;5040596;28;20457;-80
2023/01/16 15:33:47;;;;;;;7.37;2.10;;;;;;;;;;5038939;28;20509;-80
2023/01/16 15:36:31;;;;;;;4.93;2.40;;;;;;;;;;5038328;28;20540;-80
2023/01/16 15:39:04;;;;;;;8.00;3.20;;;;;;;;;;5040535;28;21324;-80
2023/01/16 15:47:15;;;;;;;11.50;4.00;;;;;;;;;;5038476;28;20863;-80
2023/01/16 15:49:48;;;;;;;8.63;3.30;;;;;;;;;;5040371;28;20484;-79
2023/01/16 15:52:15;;;;;;;13.90;3.13;;;;;;;;;;5038013;28;20472;-80
2023/01/16 15:54:42;;;;;;;8.60;2.60;;;;;;;;;;5038938;28;20484;-80
2023/01/16 15:57:14;;;;;;;3.53;2.17;;;;;;;;;;5039706;28;20467;-79
2023/01/16 15:59:49;;;;;;;1.20;1.10;;;;;;;;;;5037743;28;20478;-80
2023/01/16 16:02:18;;;;;;;2.80;1.77;;;;;;;;;;5039023;28;20464;-79
2023/01/16 16:04:45;;;;;;;3.70;1.40;;;;;;;;;;5038953;28;20478;-80
2023/01/16 16:07:12;;;;;;;2.03;1.73;;;;;;;;;;5041059;28;20486;-79
2023/01/16 16:09:40;;;;;;;6.70;2.30;;;;;;;;;;5039879;28;20472;-79
2023/01/16 16:12:08;;;;;;;5.20;2.10;;;;;;;;;;5038284;28;20449;-78
2023/01/16 16:20:25;;;;;;;2.87;1.80;;;;;;;;;;5039382;28;20478;-80
2023/01/16 16:22:52;;;;;;;3.73;1.40;;;;;;;;;;5041257;28;20884;-79
2023/01/16 16:25:23;;;;;;;2.93;1.50;;;;;;;;;;5038825;28;20459;-80
2023/01/16 16:27:51;;;;;;;3.70;1.60;;;;;;;;;;5039367;28;21001;-79
2023/01/16 16:30:20;;;;;;;4.73;2.33;;;;;;;;;;5038775;28;20471;-79